Airfield :
LOGIN :

Register | Disclaimer

   EN    FR    IT 

 










Legend :    VFR   Marginal VFR   IFR   Intensive IFR   Very Intensive IFR
Visi :
Ceiling :
>= 8 km
>= 3000ft
5 to 8 km
1000 to 3000 ft
1500m to 5 km
500 to 1000 ft
800 to 1500m
200 to 500 ft
< 800m
< 200 ft
Symbols :   Thunderstorms  Fog  Heavy snow  Heavy precipitations  Wind > 20 kt
SIGMETs :     Misc.  Thunderstorms  Icing  Turbulence  Mountain Waves  Volcanic Ashes






- Airport Elevation : 1302 ft
- IATA code : GNB


LFLS - Grenoble / St. Geoirs

CURRENT METAR :
  • 032230Z AUTO 24004KT 190V290 CAVOK 22/16 Q1020

EXPIRED METARs :
  • 032200Z AUTO 20004KT 160V240 CAVOK 21/16 Q1019
  • 032130Z AUTO 16004KT CAVOK 21/16 Q1019
  • 032100Z AUTO VRB01KT CAVOK 22/16 Q1019
  • 032030Z AUTO VRB03KT CAVOK 23/15 Q1019
  • 032000Z AUTO 07003KT 030V110 CAVOK 24/16 Q1018

TAF TAF LFLS
Valid from the 03 at 15:00 until the 04 at 15:00 UTC


031400Z 0315/0415 34008KT CAVOK
TEMPO 0315/0319 FEW080CB
BECMG 0319/0321 VRB02KT
TEMPO 0400/0405 VRB12KT SHRA SCT080CB
TEMPO 0413/0415 VRB15G25KT TSRA BKN080CB
ATIS : +33 4 76 65 55 89



MET'MAP, your aeronautical weather chart ! - Copyright ORBIFLY December 2007 - Disclaimer

ORBIFLY MET'MAP TEAM :

Programming & Development : Alexandra Zaïnal
Original concept : Baudouin d'Aumeries
Technical & hardware support : Manuel Goepfert
Assistance : Marc-Olivier Méhu




SOURCES & CREDITS :

   NOAA